createdAt,value
2018-12-08T00:02:06.447Z,2.27
2018-12-08T00:04:29.529Z,2.30
2018-12-08T00:06:52.669Z,2.23
2018-12-08T00:09:15.804Z,1.70
2018-12-08T00:11:38.925Z,2.30
2018-12-08T00:14:02.066Z,2.10
2018-12-08T00:16:25.161Z,2.37
2018-12-08T00:18:48.363Z,2.73
2018-12-08T00:21:11.465Z,2.87
2018-12-08T00:23:34.574Z,2.17
2018-12-08T00:25:57.687Z,2.53
2018-12-08T00:28:20.798Z,2.40
2018-12-08T00:30:55.504Z,2.50
2018-12-08T00:33:18.604Z,2.50
2018-12-08T00:35:41.741Z,3.13
2018-12-08T00:38:04.858Z,1.80
2018-12-08T00:40:27.952Z,1.80
2018-12-08T00:42:51.067Z,2.17
2018-12-08T00:45:14.190Z,2.27
2018-12-08T00:47:37.403Z,2.17
2018-12-08T00:50:00.514Z,1.90
2018-12-08T00:52:23.677Z,2.27
2018-12-08T00:54:46.754Z,2.13
2018-12-08T00:57:09.896Z,1.77
2018-12-08T00:59:33.018Z,2.07
2018-12-08T01:01:56.140Z,2.40
2018-12-08T01:04:19.284Z,2.53
2018-12-08T01:06:42.446Z,2.23
2018-12-08T01:09:07.567Z,2.10
2018-12-08T01:11:30.680Z,2.27
2018-12-08T01:13:53.771Z,2.40
2018-12-08T01:16:16.854Z,1.90
2018-12-08T01:18:39.971Z,2.43
2018-12-08T01:21:03.087Z,2.33
2018-12-08T01:23:26.174Z,2.33
2018-12-08T01:25:49.307Z,2.30
2018-12-08T01:28:12.463Z,2.70
2018-12-08T01:30:35.599Z,2.87
2018-12-08T01:32:58.712Z,2.30
2018-12-08T01:35:21.803Z,2.67
2018-12-08T01:37:44.947Z,2.63
2018-12-08T01:40:08.114Z,2.80
2018-12-08T01:42:31.272Z,2.33
2018-12-08T01:44:54.391Z,2.93
2018-12-08T01:47:17.499Z,2.87
2018-12-08T01:49:40.600Z,2.30
2018-12-08T01:52:03.770Z,2.67
2018-12-08T01:54:26.930Z,2.93
2018-12-08T01:56:50.043Z,3.30
2018-12-08T01:59:13.159Z,2.83
2018-12-08T02:01:36.269Z,3.20
2018-12-08T02:03:59.356Z,2.50
2018-12-08T02:06:22.582Z,2.73
2018-12-08T02:08:45.680Z,2.93
2018-12-08T02:11:08.816Z,2.40
2018-12-08T02:13:31.937Z,2.90
2018-12-08T02:15:55.037Z,3.27
2018-12-08T02:18:18.193Z,2.80
2018-12-08T02:20:41.293Z,2.73
2018-12-08T02:23:04.413Z,2.60
2018-12-08T02:25:27.557Z,2.50
2018-12-08T02:27:50.652Z,3.00
2018-12-08T02:30:14.029Z,2.27
2018-12-08T02:32:37.153Z,2.67
2018-12-08T02:35:00.230Z,3.00
2018-12-08T02:37:23.428Z,2.50
2018-12-08T02:39:46.530Z,2.47
2018-12-08T02:42:09.670Z,2.43
2018-12-08T02:44:32.798Z,2.30
2018-12-08T02:46:55.926Z,2.70
2018-12-08T02:49:19.034Z,2.60
2018-12-08T02:51:42.112Z,2.57
2018-12-08T02:54:05.236Z,2.03
2018-12-08T02:56:28.333Z,2.83
2018-12-08T02:58:51.458Z,2.27
2018-12-08T03:01:14.591Z,2.10
2018-12-08T03:03:37.698Z,2.70
2018-12-08T03:06:00.826Z,2.40
2018-12-08T03:08:23.989Z,1.90
2018-12-08T03:10:47.080Z,2.67
2018-12-08T03:13:10.172Z,1.70
2018-12-08T03:15:33.307Z,2.13
2018-12-08T03:17:56.407Z,2.43
2018-12-08T03:20:19.578Z,1.63
2018-12-08T03:22:42.677Z,2.30
2018-12-08T03:25:05.827Z,2.20
2018-12-08T03:27:28.956Z,2.30
2018-12-08T03:29:52.056Z,2.63
2018-12-08T03:32:15.212Z,2.73
2018-12-08T03:34:38.353Z,2.70
2018-12-08T03:37:01.437Z,2.80
2018-12-08T03:39:24.561Z,2.40
2018-12-08T03:41:47.670Z,2.50
2018-12-08T03:44:10.792Z,2.97
2018-12-08T03:46:33.897Z,2.37
2018-12-08T03:48:57.029Z,2.97
2018-12-08T03:51:20.115Z,3.00
2018-12-08T03:53:43.223Z,3.20
2018-12-08T03:56:06.331Z,3.27
2018-12-08T03:58:29.413Z,2.83
2018-12-08T04:00:52.622Z,3.30
2018-12-08T04:03:15.716Z,2.93
2018-12-08T04:05:38.918Z,2.80
2018-12-08T04:08:02.040Z,3.03
2018-12-08T04:10:25.170Z,2.63
2018-12-08T04:12:48.309Z,2.73
2018-12-08T04:15:11.425Z,3.03
2018-12-08T04:17:34.544Z,2.70
2018-12-08T04:19:57.673Z,3.30
2018-12-08T04:22:20.794Z,2.70
2018-12-08T04:24:43.953Z,2.77
2018-12-08T04:27:07.032Z,2.83
2018-12-08T04:29:30.153Z,3.30
2018-12-08T04:31:53.250Z,3.77
2018-12-08T04:34:16.335Z,3.50
2018-12-08T04:36:39.734Z,3.50
2018-12-08T04:39:02.999Z,3.23
2018-12-08T04:41:26.151Z,2.93
2018-12-08T04:43:49.266Z,3.20
2018-12-08T04:46:12.369Z,3.07
2018-12-08T04:48:35.447Z,3.33
2018-12-08T04:50:58.576Z,2.90
2018-12-08T04:53:21.669Z,2.90
2018-12-08T04:55:44.762Z,2.80
2018-12-08T04:58:07.934Z,2.80
2018-12-08T05:00:31.132Z,2.93
2018-12-08T05:02:54.239Z,3.00
2018-12-08T05:05:17.383Z,3.00
2018-12-08T05:07:40.479Z,3.40
2018-12-08T05:10:05.675Z,3.00
2018-12-08T05:12:28.759Z,3.50
2018-12-08T05:14:51.921Z,3.00
2018-12-08T05:17:15.039Z,2.90
2018-12-08T05:19:38.134Z,3.20
2018-12-08T05:22:01.250Z,3.03
2018-12-08T05:24:24.354Z,3.20
2018-12-08T05:26:47.516Z,2.83
2018-12-08T05:29:10.613Z,2.70
2018-12-08T05:31:33.691Z,2.90
2018-12-08T05:33:56.863Z,2.90
2018-12-08T05:36:20.040Z,2.70
2018-12-08T05:38:43.169Z,2.80
2018-12-08T05:41:06.300Z,3.00
2018-12-08T05:43:29.377Z,2.50
2018-12-08T05:45:52.509Z,3.00
2018-12-08T05:48:15.596Z,2.43
2018-12-08T05:50:38.723Z,2.73
2018-12-08T05:53:01.808Z,3.20
2018-12-08T05:55:24.915Z,3.30
2018-12-08T05:57:48.066Z,2.83
2018-12-08T06:00:11.316Z,2.73
2018-12-08T06:02:34.478Z,3.77
2018-12-08T06:04:57.742Z,2.90
2018-12-08T06:07:20.842Z,3.13
2018-12-08T06:09:43.937Z,2.83
2018-12-08T06:12:07.067Z,3.40
2018-12-08T06:14:30.183Z,3.30
2018-12-08T06:16:53.315Z,2.73
2018-12-08T06:19:16.408Z,3.47
2018-12-08T06:21:39.600Z,2.90
2018-12-08T06:24:02.714Z,2.77
2018-12-08T06:26:25.802Z,2.90
2018-12-08T06:28:48.909Z,2.90
2018-12-08T06:31:12.032Z,3.00
2018-12-08T06:33:35.223Z,2.80
2018-12-08T06:35:58.361Z,3.37
2018-12-08T06:38:21.457Z,2.77
2018-12-08T06:40:44.562Z,2.13
2018-12-08T06:43:07.674Z,2.57
2018-12-08T06:45:30.864Z,2.63
2018-12-08T06:47:53.945Z,3.00
2018-12-08T06:50:17.056Z,3.20
2018-12-08T06:52:40.178Z,2.70
2018-12-08T06:55:03.343Z,2.63
2018-12-08T06:57:26.473Z,2.83
2018-12-08T06:59:49.638Z,2.60
2018-12-08T07:02:12.770Z,2.80
2018-12-08T07:04:35.926Z,2.53
2018-12-08T07:06:59.075Z,2.30
2018-12-08T07:09:22.245Z,2.33
2018-12-08T07:11:45.352Z,3.00
2018-12-08T07:14:08.522Z,3.00
2018-12-08T07:16:31.710Z,2.93
2018-12-08T07:18:54.787Z,2.40
2018-12-08T07:21:17.924Z,2.70
2018-12-08T07:23:41.035Z,2.63
2018-12-08T07:26:04.187Z,2.97
2018-12-08T07:28:27.851Z,3.50
2018-12-08T07:30:50.970Z,3.40
2018-12-08T07:33:14.123Z,2.50
2018-12-08T07:35:37.248Z,2.10
2018-12-08T07:38:00.347Z,2.20
2018-12-08T07:40:23.531Z,2.60
2018-12-08T07:42:46.596Z,2.27
2018-12-08T07:45:09.743Z,2.13
2018-12-08T07:47:32.849Z,2.50
2018-12-08T07:49:56.011Z,2.33
2018-12-08T07:52:19.106Z,2.63
2018-12-08T07:54:42.210Z,2.33
2018-12-08T07:57:05.344Z,2.03
2018-12-08T07:59:28.813Z,2.70
2018-12-08T08:01:52.068Z,2.70
2018-12-08T08:04:15.161Z,2.30
2018-12-08T08:06:38.301Z,2.30
2018-12-08T08:09:01.523Z,2.23
2018-12-08T08:11:24.632Z,3.73
2018-12-08T08:13:47.734Z,2.60
2018-12-08T08:16:10.922Z,2.53
2018-12-08T08:18:34.008Z,2.03
2018-12-08T08:20:57.101Z,2.50
2018-12-08T08:23:20.227Z,2.20
2018-12-08T08:25:43.307Z,2.20
2018-12-08T08:28:06.458Z,2.53
2018-12-08T08:30:29.569Z,1.90
2018-12-08T08:32:52.641Z,2.20
2018-12-08T08:35:15.791Z,2.47
2018-12-08T08:37:38.905Z,2.07
2018-12-08T08:40:02.091Z,2.03
2018-12-08T08:42:25.218Z,2.00
2018-12-08T08:44:48.546Z,1.97
2018-12-08T08:47:11.694Z,1.80
2018-12-08T08:49:34.826Z,1.70
2018-12-08T08:51:57.992Z,1.90
2018-12-08T08:54:21.093Z,2.10
2018-12-08T08:56:44.217Z,2.73
2018-12-08T08:59:07.342Z,1.97
2018-12-08T09:01:30.461Z,1.87
2018-12-08T09:03:53.846Z,2.00
2018-12-08T09:06:16.979Z,2.30
2018-12-08T09:08:40.087Z,1.90
2018-12-08T09:11:03.241Z,2.30
2018-12-08T09:13:26.342Z,2.20
2018-12-08T09:15:49.934Z,2.30
2018-12-08T09:18:13.185Z,1.80
2018-12-08T09:20:36.291Z,1.80
2018-12-08T09:22:59.403Z,2.17
2018-12-08T09:25:22.568Z,2.00
2018-12-08T09:27:45.750Z,1.87
2018-12-08T09:30:08.911Z,1.80
2018-12-08T09:32:32.043Z,2.80
2018-12-08T09:34:55.148Z,2.57
2018-12-08T09:37:18.228Z,2.47
2018-12-08T09:39:41.350Z,2.43
2018-12-08T09:42:04.492Z,2.30
2018-12-08T09:44:27.622Z,2.00
2018-12-08T09:46:50.711Z,2.33
2018-12-08T09:49:13.856Z,2.43
2018-12-08T09:51:37.036Z,1.87
2018-12-08T09:54:00.168Z,2.33
2018-12-08T09:56:23.310Z,1.90
2018-12-08T09:58:46.416Z,2.17
2018-12-08T10:01:09.530Z,2.07
2018-12-08T10:03:32.620Z,2.30
2018-12-08T10:05:55.775Z,2.00
2018-12-08T10:08:18.856Z,2.40
2018-12-08T10:10:41.936Z,1.87
2018-12-08T10:13:05.058Z,2.23
2018-12-08T10:15:28.175Z,2.10
2018-12-08T10:17:51.280Z,2.10
2018-12-08T10:20:14.401Z,2.00
2018-12-08T10:22:37.513Z,1.90
2018-12-08T10:25:00.642Z,1.80
2018-12-08T10:27:23.760Z,1.90
2018-12-08T10:29:46.877Z,1.67
2018-12-08T10:32:10.140Z,2.13
2018-12-08T10:34:33.235Z,2.37
2018-12-08T10:36:56.367Z,1.97
2018-12-08T10:39:19.470Z,1.63
2018-12-08T10:41:42.560Z,2.00
2018-12-08T10:44:05.725Z,1.80
2018-12-08T10:46:28.852Z,1.60
2018-12-08T10:48:51.934Z,1.60
2018-12-08T10:51:15.047Z,1.70
2018-12-08T10:53:38.153Z,1.50
2018-12-08T10:56:01.264Z,1.43
2018-12-08T10:58:24.368Z,1.57
2018-12-08T11:00:53.012Z,1.43
2018-12-08T11:03:31.571Z,1.53
2018-12-08T11:05:55.108Z,1.20
2018-12-08T11:08:18.196Z,1.30
2018-12-08T11:10:41.310Z,1.40
2018-12-08T11:13:04.406Z,1.50
2018-12-08T11:15:27.574Z,1.50
2018-12-08T11:17:50.707Z,1.90
2018-12-08T11:20:13.829Z,1.50
2018-12-08T11:22:36.963Z,1.57
2018-12-08T11:25:00.065Z,1.50
2018-12-08T11:27:23.159Z,2.23
2018-12-08T11:29:46.310Z,2.40
2018-12-08T11:32:10.104Z,2.40
2018-12-08T11:34:33.203Z,1.90
2018-12-08T11:36:56.355Z,2.13
2018-12-08T11:39:19.464Z,2.00
2018-12-08T11:41:42.760Z,1.53
2018-12-08T11:44:05.953Z,1.47
2018-12-08T11:46:29.093Z,1.37
2018-12-08T11:48:52.256Z,1.37
2018-12-08T11:51:15.372Z,1.50
2018-12-08T11:53:38.482Z,2.10
2018-12-08T11:56:01.619Z,1.97
2018-12-08T11:58:24.790Z,1.47
2018-12-08T12:00:48.055Z,1.87
2018-12-08T12:03:11.163Z,1.93
2018-12-08T12:05:34.277Z,2.47
2018-12-08T12:07:57.395Z,1.83
2018-12-08T12:10:20.507Z,1.40
2018-12-08T12:12:43.716Z,1.80
2018-12-08T12:15:07.067Z,1.33
2018-12-08T12:17:30.214Z,1.90
2018-12-08T12:19:53.339Z,1.80
2018-12-08T12:22:16.454Z,3.30
2018-12-08T12:24:39.599Z,2.47
2018-12-08T12:27:02.706Z,1.60
2018-12-08T12:29:25.787Z,1.70
2018-12-08T12:31:49.049Z,1.57
2018-12-08T12:34:12.141Z,2.13
2018-12-08T12:36:35.271Z,2.60
2018-12-08T12:38:58.373Z,1.80
2018-12-08T12:41:21.463Z,1.50
2018-12-08T12:43:44.580Z,1.87
2018-12-08T12:46:07.716Z,1.90
2018-12-08T12:48:30.852Z,2.27
2018-12-08T12:50:53.922Z,1.87
2018-12-08T12:53:17.046Z,1.40
2018-12-08T12:55:40.249Z,1.30
2018-12-08T12:58:03.420Z,1.60
2018-12-08T13:00:26.530Z,1.50
2018-12-08T13:02:49.632Z,1.40
2018-12-08T13:05:12.803Z,1.47
2018-12-08T13:07:36.053Z,1.77
2018-12-08T13:09:59.210Z,1.90
2018-12-08T13:12:22.454Z,1.70
2018-12-08T13:14:45.535Z,1.80
2018-12-08T13:17:08.699Z,2.10
2018-12-08T13:19:31.810Z,1.80
2018-12-08T13:21:54.922Z,1.47
2018-12-08T13:24:18.030Z,1.90
2018-12-08T13:26:41.138Z,5.67
2018-12-08T13:29:04.274Z,13.37
2018-12-08T13:31:27.383Z,2.27
2018-12-08T13:33:51.750Z,3.00
2018-12-08T13:36:14.847Z,3.13
2018-12-08T13:38:37.995Z,5.80
2018-12-08T13:41:01.099Z,2.93
2018-12-08T13:43:24.289Z,13.43
2018-12-08T13:45:47.419Z,13.87
2018-12-08T13:48:11.476Z,7.63
2018-12-08T13:50:35.162Z,6.97
2018-12-08T13:52:58.279Z,4.10
2018-12-08T13:55:21.395Z,2.50
2018-12-08T13:57:44.492Z,2.30
2018-12-08T14:00:07.727Z,2.47
2018-12-08T14:02:30.942Z,2.47
2018-12-08T14:04:54.047Z,2.80
2018-12-08T14:07:17.145Z,2.33
2018-12-08T14:09:40.266Z,2.97
2018-12-08T14:12:03.388Z,3.07
2018-12-08T14:14:26.512Z,2.17
2018-12-08T14:16:49.603Z,2.70
2018-12-08T14:19:12.858Z,2.73
2018-12-08T14:21:35.961Z,2.50
2018-12-08T14:23:59.101Z,2.40
2018-12-08T14:26:22.246Z,2.50
2018-12-08T14:28:45.491Z,3.07
2018-12-08T14:31:08.690Z,3.40
2018-12-08T14:33:31.801Z,3.00
2018-12-08T14:35:54.875Z,2.47
2018-12-08T14:38:18.013Z,3.20
2018-12-08T14:40:41.161Z,2.30
2018-12-08T14:43:04.264Z,2.90
2018-12-08T14:45:27.442Z,2.80
2018-12-08T14:47:50.643Z,2.80
2018-12-08T14:50:13.782Z,2.63
2018-12-08T14:52:36.942Z,2.83
2018-12-08T14:55:00.091Z,2.93
2018-12-08T14:57:23.317Z,2.87
2018-12-08T14:59:46.467Z,4.03
2018-12-08T15:02:09.663Z,4.80
2018-12-08T15:04:32.776Z,2.60
2018-12-08T15:06:55.908Z,2.63
2018-12-08T15:09:19.101Z,2.20
2018-12-08T15:11:42.217Z,2.67
2018-12-08T15:14:05.316Z,3.00
2018-12-08T15:16:28.488Z,2.50
2018-12-08T15:18:51.589Z,2.60
2018-12-08T15:21:14.790Z,2.50
2018-12-08T15:23:38.321Z,2.60
2018-12-08T15:26:01.823Z,2.97
2018-12-08T15:28:24.957Z,2.60
2018-12-08T15:30:48.495Z,3.07
2018-12-08T15:33:11.679Z,3.37
2018-12-08T15:35:34.818Z,2.53
2018-12-08T15:37:58.158Z,2.77
2018-12-08T15:40:21.330Z,2.30
2018-12-08T15:42:44.468Z,3.17
2018-12-08T15:45:09.375Z,2.67
2018-12-08T15:47:32.586Z,3.53
2018-12-08T15:49:55.750Z,2.43
2018-12-08T15:52:19.014Z,4.20
2018-12-08T15:54:42.117Z,2.90
2018-12-08T15:57:05.251Z,2.90
2018-12-08T15:59:28.395Z,3.00
2018-12-08T16:01:51.503Z,2.50
2018-12-08T16:04:14.715Z,3.13
2018-12-08T16:06:37.807Z,2.50
2018-12-08T16:09:00.919Z,2.07
2018-12-08T16:11:24.064Z,2.53
2018-12-08T16:13:47.153Z,1.87
2018-12-08T16:16:10.395Z,2.27
2018-12-08T16:18:33.546Z,2.10
2018-12-08T16:20:56.678Z,1.90
2018-12-08T16:23:19.805Z,2.87
2018-12-08T16:25:42.917Z,2.17
2018-12-08T16:28:06.070Z,2.50
2018-12-08T16:30:29.183Z,2.20
2018-12-08T16:32:52.317Z,2.40
2018-12-08T16:35:15.523Z,1.90
2018-12-08T16:37:38.736Z,2.13
2018-12-08T16:40:01.900Z,2.00
2018-12-08T16:42:25.019Z,2.20
2018-12-08T16:44:48.177Z,1.90
2018-12-08T16:47:11.358Z,2.20
2018-12-08T16:49:34.462Z,2.20
2018-12-08T16:51:57.579Z,2.10
2018-12-08T16:54:20.752Z,3.97
2018-12-08T16:56:43.929Z,2.90
2018-12-08T16:59:07.062Z,2.90
2018-12-08T17:01:30.244Z,2.23
2018-12-08T17:03:53.316Z,2.20
2018-12-08T17:06:16.502Z,2.70
2018-12-08T17:08:39.638Z,2.23
2018-12-08T17:11:02.778Z,2.43
2018-12-08T17:13:25.886Z,2.37
2018-12-08T17:15:49.035Z,2.43
2018-12-08T17:18:12.187Z,1.93
2018-12-08T17:20:35.322Z,2.87
2018-12-08T17:22:58.521Z,2.60
2018-12-08T17:25:21.630Z,2.37
2018-12-08T17:27:45.073Z,2.70
2018-12-08T17:30:08.462Z,2.27
2018-12-08T17:32:31.604Z,2.20
2018-12-08T17:34:54.751Z,2.23
2018-12-08T17:37:17.844Z,1.83
2018-12-08T17:39:40.974Z,4.07
2018-12-08T17:42:04.117Z,2.67
2018-12-08T17:44:27.273Z,2.50
2018-12-08T17:46:50.391Z,2.73
2018-12-08T17:49:14.597Z,2.70
2018-12-08T17:51:37.674Z,2.77
2018-12-08T17:54:01.943Z,2.20
2018-12-08T17:56:25.057Z,3.80
2018-12-08T17:58:48.160Z,3.10
2018-12-08T18:01:11.393Z,2.50
2018-12-08T18:03:34.578Z,2.43
2018-12-08T18:05:57.676Z,2.50
2018-12-08T18:08:20.782Z,2.70
2018-12-08T18:10:43.904Z,2.70
2018-12-08T18:13:07.102Z,2.40
2018-12-08T18:15:30.201Z,2.20
2018-12-08T18:17:53.311Z,1.67
2018-12-08T18:20:16.495Z,2.63
2018-12-08T18:22:39.771Z,2.83
2018-12-08T18:25:03.272Z,2.37
2018-12-08T18:27:26.375Z,2.33
2018-12-08T18:29:49.488Z,2.83
2018-12-08T18:32:12.636Z,2.47
2018-12-08T18:34:35.764Z,2.43
2018-12-08T18:36:58.877Z,2.60
2018-12-08T18:39:22.022Z,2.53
2018-12-08T18:41:45.145Z,2.70
2018-12-08T18:44:08.278Z,2.10
2018-12-08T18:46:31.515Z,2.93
2018-12-08T18:48:54.681Z,2.23
2018-12-08T18:51:17.785Z,2.30
2018-12-08T18:53:40.898Z,2.60
2018-12-08T18:56:04.081Z,2.73
2018-12-08T18:58:27.215Z,2.90
2018-12-08T19:00:50.323Z,3.30
2018-12-08T19:03:13.474Z,2.70
2018-12-08T19:05:36.615Z,2.97
2018-12-08T19:07:59.766Z,2.57
2018-12-08T19:10:22.930Z,3.03
2018-12-08T19:12:46.044Z,4.80
2018-12-08T19:15:09.243Z,3.60
2018-12-08T19:17:32.476Z,6.27
2018-12-08T19:19:55.601Z,9.53
2018-12-08T19:22:18.758Z,5.20
2018-12-08T19:24:41.888Z,9.40
2018-12-08T19:27:05.041Z,5.50
2018-12-08T19:29:28.183Z,5.27
2018-12-08T19:31:51.292Z,3.90
2018-12-08T19:34:14.465Z,3.33
2018-12-08T19:36:37.591Z,4.97
2018-12-08T19:39:00.747Z,2.90
2018-12-08T19:41:23.948Z,3.77
2018-12-08T19:43:47.124Z,4.33
2018-12-08T19:46:10.277Z,3.30
2018-12-08T19:48:33.406Z,4.30
2018-12-08T19:50:56.533Z,5.77
2018-12-08T19:53:19.645Z,4.00
2018-12-08T19:55:42.749Z,3.80
2018-12-08T19:58:05.909Z,4.80
2018-12-08T20:00:29.053Z,4.63
2018-12-08T20:02:52.207Z,4.23
2018-12-08T20:05:15.339Z,4.27
2018-12-08T20:07:38.487Z,4.07
2018-12-08T20:10:01.668Z,4.40
2018-12-08T20:12:24.810Z,4.13
2018-12-08T20:14:47.992Z,3.83
2018-12-08T20:17:11.122Z,3.70
2018-12-08T20:19:34.256Z,3.60
2018-12-08T20:21:57.367Z,3.83
2018-12-08T20:24:20.472Z,4.27
2018-12-08T20:26:43.638Z,3.70
2018-12-08T20:29:06.758Z,4.30
2018-12-08T20:31:29.895Z,3.33
2018-12-08T20:33:52.989Z,4.00
2018-12-08T20:36:16.121Z,3.47
2018-12-08T20:38:39.252Z,4.73
2018-12-08T20:41:02.407Z,3.80
2018-12-08T20:43:25.528Z,4.17
2018-12-08T20:45:48.646Z,3.60
2018-12-08T20:48:11.771Z,3.37
2018-12-08T20:50:34.940Z,3.33
2018-12-08T20:52:58.054Z,4.20
2018-12-08T20:55:23.126Z,3.87
2018-12-08T20:57:46.239Z,3.47
2018-12-08T21:00:09.420Z,3.93
2018-12-08T21:02:32.584Z,3.73
2018-12-08T21:04:55.682Z,3.80
2018-12-08T21:07:18.845Z,4.33
2018-12-08T21:09:41.992Z,3.83
2018-12-08T21:12:06.684Z,4.50
2018-12-08T21:14:30.136Z,4.23
2018-12-08T21:16:53.249Z,4.37
2018-12-08T21:19:16.345Z,4.77
2018-12-08T21:21:39.479Z,4.90
2018-12-08T21:24:02.615Z,4.17
2018-12-08T21:26:25.977Z,4.70
2018-12-08T21:28:49.110Z,6.43
2018-12-08T21:31:12.252Z,4.07
2018-12-08T21:33:36.249Z,4.53
2018-12-08T21:35:59.354Z,4.27
2018-12-08T21:38:22.486Z,4.30
2018-12-08T21:40:45.601Z,4.67
2018-12-08T21:43:08.746Z,4.50
2018-12-08T21:45:31.903Z,5.37
2018-12-08T21:47:55.042Z,4.50
2018-12-08T21:50:18.326Z,4.30
2018-12-08T21:52:41.439Z,4.60
2018-12-08T21:55:04.595Z,4.23
2018-12-08T21:57:27.739Z,4.27
2018-12-08T21:59:50.850Z,3.63
2018-12-08T22:02:13.995Z,4.60
2018-12-08T22:04:37.135Z,3.17
2018-12-08T22:07:00.239Z,2.90
2018-12-08T22:09:23.338Z,2.97
2018-12-08T22:11:46.470Z,3.10
2018-12-08T22:14:09.591Z,2.83
2018-12-08T22:16:32.713Z,2.93
2018-12-08T22:18:55.853Z,2.97
2018-12-08T22:21:19.034Z,3.07
2018-12-08T22:23:42.248Z,2.80
2018-12-08T22:26:05.422Z,2.47
2018-12-08T22:28:28.536Z,2.23
2018-12-08T22:30:51.677Z,2.30
2018-12-08T22:33:14.791Z,2.00
2018-12-08T22:35:38.020Z,2.40
2018-12-08T22:38:01.123Z,2.30
2018-12-08T22:40:24.249Z,2.20
2018-12-08T22:42:47.397Z,2.23
2018-12-08T22:45:10.502Z,2.40
2018-12-08T22:47:33.654Z,2.03
2018-12-08T22:49:56.740Z,2.10
2018-12-08T22:52:19.888Z,1.97
2018-12-08T22:54:43.069Z,2.00
2018-12-08T22:57:06.175Z,2.00
2018-12-08T22:59:29.319Z,1.80
2018-12-08T23:01:52.492Z,1.97
2018-12-08T23:04:15.679Z,1.53
2018-12-08T23:06:38.842Z,1.80
2018-12-08T23:09:01.936Z,1.30
2018-12-08T23:11:25.035Z,1.50
2018-12-08T23:13:48.184Z,1.70
2018-12-08T23:16:11.390Z,1.40
2018-12-08T23:18:34.490Z,1.43
2018-12-08T23:20:57.614Z,1.30
2018-12-08T23:23:20.760Z,1.20
2018-12-08T23:25:43.874Z,1.63
2018-12-08T23:28:07.050Z,1.27
2018-12-08T23:30:30.327Z,1.53
2018-12-08T23:32:53.445Z,1.00
2018-12-08T23:35:16.624Z,1.00
2018-12-08T23:37:40.008Z,1.40
2018-12-08T23:40:03.488Z,1.10
2018-12-08T23:42:26.618Z,1.10
2018-12-08T23:44:49.757Z,0.97
2018-12-08T23:47:12.913Z,0.90
2018-12-08T23:49:36.069Z,1.13
2018-12-08T23:51:59.185Z,1.00
2018-12-08T23:54:22.282Z,0.80
2018-12-08T23:56:45.403Z,0.83
2018-12-08T23:59:08.597Z,0.90
